Portada
METAR-TAF:

METAR-TAF

Aeroports :

Aeroport Internacional Maiquetía Simón Bolívar

Caracas, Veneçuela

latitud: 10-36N, longitud: 066-59W, altitud: 43 m

Observació

L'informe es va fer fa 11 minuts, a les 16:02 UTC
Vent 14 kt del Est
Temperatura 28°C
Humitat 79%
Pressió 1015 hPa

METAR: SVMI 101602Z AUTO 08014KT NCD 28/24 Q1015

Hora: 12:13 (16:13 UTC)

Pronòstic

L'informe es va fer fa 5 hores i 13 minuts, a les 11:00 UTC
Pronòstic vàlid del 10 a les 13 UTC al 11 a les 13 UTC
Visibilitat 10 km o més
Escasses núvols a una alçada de 1600 ft
Temporalment
l' 10 a les 13 UTC al 10 a les 16 UTC
Vent 2 kt del Est
Visibilitat 10 km o més
Escasses núvols a una alçada de 1600 ft

TAF: SVMI 101100Z 1013/1113 0000KT 9999 FEW016 TX26/18Z TN22/08Z TEMPO 1013/1016 10002KT 9999 FEW016

Observacions i pronòstics meteorològics de més de 4000 aeroports (METAR i TAF).

Les estacions disponibles són els punts grocs i vermells al mapa.

Posi el ratolí al punt desitjat per veure el nom de l'estació.

Feu clic per veure les observacions i els pronòstics meteorològics.

Per canviar el mapa: feu clic els botons verds amb una creu de color negre per apropar; al botó verd amb un guió per allunyar la imatge; o en les fletxes verdes per a mapes adjacents.


METAR-TAF: